Terminal Aerodrome Forecast
Issued by NWS

Home | Current Version | Previous Version | Text Only | Print | Product List | Glossary On
Versions: 1 2 3 4 5 6 7 8 9 10 11 12 13 14
000
FTPA31 PHFO 201132
TAFHJR
TAF
PHJR 201132Z 2012/2112 34005KT P6SM VCSH SCT025 BKN060
     FM202000 01012G18KT P6SM VCSH FEW025 SCT060
     FM210400 36006KT P6SM FEW025 SCT060=

USA.gov is the U.S. government's official web portal to all federal, state and local government web resources and services.